createdAt,value
2017-11-18T00:02:19.684Z,4.45
2017-11-18T00:04:47.179Z,4.43
2017-11-18T00:07:14.645Z,3.37
2017-11-18T00:09:42.195Z,4.20
2017-11-18T00:12:09.727Z,4.30
2017-11-18T00:14:37.252Z,4.55
2017-11-18T00:17:04.732Z,4.20
2017-11-18T00:19:32.218Z,5.22
2017-11-18T00:21:59.757Z,5.28
2017-11-18T00:24:27.280Z,4.37
2017-11-18T00:26:55.120Z,4.45
2017-11-18T00:29:22.651Z,4.60
2017-11-18T00:31:50.153Z,4.72
2017-11-18T00:34:17.627Z,3.75
2017-11-18T00:36:45.107Z,4.60
2017-11-18T00:39:12.663Z,5.10
2017-11-18T00:41:40.209Z,4.15
2017-11-18T00:44:07.674Z,4.28
2017-11-18T00:46:35.153Z,5.28
2017-11-18T00:49:02.620Z,4.80
2017-11-18T00:51:30.845Z,4.12
2017-11-18T00:53:58.295Z,3.35
2017-11-18T00:56:25.750Z,4.28
2017-11-18T00:58:53.218Z,4.15
2017-11-18T01:01:20.713Z,3.80
2017-11-18T01:03:48.994Z,4.40
2017-11-18T01:06:16.478Z,4.20
2017-11-18T01:08:43.977Z,4.62
2017-11-18T01:11:11.477Z,3.83
2017-11-18T01:13:39.693Z,4.10
2017-11-18T01:16:07.185Z,4.40
2017-11-18T01:18:34.649Z,3.95
2017-11-18T01:21:02.920Z,4.10
2017-11-18T01:23:30.381Z,4.68
2017-11-18T01:25:58.599Z,5.15
2017-11-18T01:28:26.097Z,4.68
2017-11-18T01:30:53.561Z,4.43
2017-11-18T01:33:21.200Z,5.18
2017-11-18T01:35:48.723Z,6.28
2017-11-18T01:38:17.034Z,5.10
2017-11-18T01:40:44.524Z,4.62
2017-11-18T01:43:12.782Z,5.00
2017-11-18T01:45:48.272Z,4.87
2017-11-18T01:48:17.339Z,4.95
2017-11-18T01:50:45.608Z,5.10
2017-11-18T01:53:13.890Z,5.10
2017-11-18T01:55:42.161Z,4.80
2017-11-18T01:58:09.642Z,4.40
2017-11-18T02:00:37.124Z,5.90
2017-11-18T02:03:04.603Z,4.72
2017-11-18T02:05:32.081Z,5.50
2017-11-18T02:07:59.566Z,5.95
2017-11-18T02:10:27.780Z,5.37
2017-11-18T02:12:55.285Z,5.60
2017-11-18T02:15:23.531Z,5.28
2017-11-18T02:17:50.979Z,6.43
2017-11-18T02:20:18.476Z,5.43
2017-11-18T02:22:46.705Z,5.62
2017-11-18T02:25:14.180Z,5.90
2017-11-18T02:27:41.691Z,5.43
2017-11-18T02:30:09.212Z,5.25
2017-11-18T02:32:36.710Z,5.25
2017-11-18T02:35:06.497Z,5.80
2017-11-18T02:37:34.747Z,5.22
2017-11-18T02:40:02.209Z,4.30
2017-11-18T02:42:29.692Z,5.22
2017-11-18T02:44:57.184Z,6.55
2017-11-18T02:47:24.684Z,5.82
2017-11-18T02:49:52.222Z,4.82
2017-11-18T02:52:19.697Z,5.53
2017-11-18T02:54:47.165Z,5.55
2017-11-18T02:57:14.703Z,5.20
2017-11-18T02:59:42.162Z,5.47
2017-11-18T03:02:09.654Z,6.37
2017-11-18T03:04:37.124Z,4.95
2017-11-18T03:07:04.575Z,5.28
2017-11-18T03:09:32.872Z,5.43
2017-11-18T03:12:00.383Z,5.32
2017-11-18T03:14:27.861Z,5.68
2017-11-18T03:16:55.322Z,5.30
2017-11-18T03:19:22.795Z,6.00
2017-11-18T03:21:50.264Z,5.30
2017-11-18T03:24:17.739Z,6.07
2017-11-18T03:26:45.214Z,5.90
2017-11-18T03:29:12.668Z,5.80
2017-11-18T03:31:40.123Z,7.03
2017-11-18T03:34:07.588Z,4.97
2017-11-18T03:36:35.039Z,5.10
2017-11-18T03:39:02.501Z,5.80
2017-11-18T03:41:29.967Z,5.15
2017-11-18T03:43:58.192Z,6.57
2017-11-18T03:46:25.654Z,5.95
2017-11-18T03:48:53.140Z,6.05
2017-11-18T03:51:20.649Z,6.75
2017-11-18T03:53:48.117Z,6.25
2017-11-18T03:56:15.585Z,6.80
2017-11-18T03:58:43.048Z,5.85
2017-11-18T04:01:10.535Z,5.47
2017-11-18T04:03:38.035Z,5.82
2017-11-18T04:06:05.514Z,5.00
2017-11-18T04:08:32.984Z,6.30
2017-11-18T04:11:01.661Z,6.35
2017-11-18T04:13:29.141Z,6.45
2017-11-18T04:15:56.615Z,5.43
2017-11-18T04:18:24.882Z,5.95
2017-11-18T04:20:52.328Z,5.43
2017-11-18T04:23:19.866Z,5.60
2017-11-18T04:25:47.372Z,7.78
2017-11-18T04:28:14.885Z,6.05
2017-11-18T04:30:42.396Z,6.10
2017-11-18T04:33:09.885Z,6.50
2017-11-18T04:35:37.396Z,7.25
2017-11-18T04:38:05.660Z,7.45
2017-11-18T04:40:33.240Z,7.10
2017-11-18T04:43:00.752Z,6.35
2017-11-18T04:45:28.248Z,6.43
2017-11-18T04:47:56.491Z,5.47
2017-11-18T04:50:23.980Z,8.38
2017-11-18T04:52:51.452Z,5.80
2017-11-18T04:55:18.951Z,6.70
2017-11-18T04:57:46.452Z,6.40
2017-11-18T05:00:13.976Z,7.37
2017-11-18T05:02:41.708Z,7.78
2017-11-18T05:05:09.293Z,6.68
2017-11-18T05:07:36.829Z,6.18
2017-11-18T05:10:04.325Z,7.03
2017-11-18T05:12:32.129Z,6.28
2017-11-18T05:14:59.650Z,7.40
2017-11-18T05:17:27.135Z,7.45
2017-11-18T05:19:55.700Z,6.95
2017-11-18T05:22:23.240Z,6.95
2017-11-18T05:24:50.897Z,8.30
2017-11-18T05:27:18.368Z,8.55
2017-11-18T05:29:45.852Z,7.93
2017-11-18T05:32:14.134Z,7.15
2017-11-18T05:34:41.592Z,7.05
2017-11-18T05:37:09.153Z,7.93
2017-11-18T05:39:36.672Z,7.07
2017-11-18T05:42:04.155Z,7.18
2017-11-18T05:44:31.623Z,7.35
2017-11-18T05:46:59.084Z,7.45
2017-11-18T05:49:26.626Z,7.68
2017-11-18T05:51:54.104Z,7.60
2017-11-18T05:54:21.570Z,8.13
2017-11-18T05:56:49.028Z,8.02
2017-11-18T05:59:16.516Z,7.00
2017-11-18T06:01:44.021Z,7.95
2017-11-18T06:04:15.149Z,8.02
2017-11-18T06:06:43.554Z,8.38
2017-11-18T06:09:11.118Z,9.50
2017-11-18T06:11:38.854Z,9.23
2017-11-18T06:14:10.492Z,8.50
2017-11-18T06:16:45.844Z,8.90
2017-11-18T06:22:22.011Z,8.70
2017-11-18T06:24:50.294Z,9.00
2017-11-18T06:27:17.797Z,8.02
2017-11-18T06:29:48.319Z,9.55
2017-11-18T06:32:20.980Z,11.12
2017-11-18T06:34:48.482Z,8.88
2017-11-18T06:37:15.955Z,8.93
2017-11-18T06:39:43.452Z,9.50
2017-11-18T06:42:11.055Z,9.90
2017-11-18T06:44:38.562Z,8.35
2017-11-18T06:47:06.796Z,9.75
2017-11-18T06:49:35.084Z,8.55
2017-11-18T06:52:02.599Z,9.45
2017-11-18T06:54:30.120Z,10.90
2017-11-18T06:56:57.616Z,8.75
2017-11-18T06:59:25.096Z,9.07
2017-11-18T07:01:52.682Z,9.43
2017-11-18T07:04:20.177Z,10.57
2017-11-18T07:06:47.684Z,9.75
2017-11-18T07:09:15.217Z,9.57
2017-11-18T07:11:42.666Z,9.10
2017-11-18T07:14:10.210Z,9.32
2017-11-18T07:16:37.760Z,8.60
2017-11-18T07:19:05.302Z,9.65
2017-11-18T07:21:32.778Z,9.68
2017-11-18T07:24:00.767Z,8.95
2017-11-18T07:26:28.230Z,8.90
2017-11-18T07:28:55.685Z,9.32
2017-11-18T07:31:23.152Z,8.57
2017-11-18T07:33:50.652Z,9.57
2017-11-18T07:36:19.425Z,9.52
2017-11-18T07:38:46.971Z,10.25
2017-11-18T07:41:14.461Z,9.30
2017-11-18T07:43:41.945Z,10.45
2017-11-18T07:46:09.501Z,9.13
2017-11-18T07:48:37.233Z,9.23
2017-11-18T07:51:04.745Z,8.13
2017-11-18T07:53:32.232Z,7.85
2017-11-18T07:55:59.733Z,8.73
2017-11-18T07:58:27.985Z,9.00
2017-11-18T08:00:56.713Z,9.70
2017-11-18T08:03:24.244Z,9.10
2017-11-18T08:05:51.737Z,8.40
2017-11-18T08:08:19.346Z,8.63
2017-11-18T08:10:46.930Z,8.00
2017-11-18T08:13:15.126Z,9.02
2017-11-18T08:15:42.631Z,7.62
2017-11-18T08:18:10.113Z,7.30
2017-11-18T08:20:37.594Z,7.82
2017-11-18T08:23:05.105Z,7.40
2017-11-18T08:25:32.611Z,7.55
2017-11-18T08:28:00.212Z,7.47
2017-11-18T08:30:27.817Z,7.18
2017-11-18T08:32:55.347Z,6.20
2017-11-18T08:35:22.842Z,7.10
2017-11-18T08:37:50.418Z,6.22
2017-11-18T08:40:18.054Z,7.00
2017-11-18T08:42:46.304Z,5.75
2017-11-18T08:45:13.792Z,6.40
2017-11-18T08:47:41.328Z,6.90
2017-11-18T08:50:08.798Z,5.55
2017-11-18T08:52:36.370Z,6.85
2017-11-18T08:55:04.642Z,6.28
2017-11-18T08:57:32.337Z,5.45
2017-11-18T08:59:59.861Z,5.95
2017-11-18T09:02:27.610Z,5.50
2017-11-18T09:04:55.359Z,6.12
2017-11-18T09:07:22.844Z,5.45
2017-11-18T09:09:50.317Z,6.07
2017-11-18T09:12:17.773Z,6.20
2017-11-18T09:14:45.228Z,6.65
2017-11-18T09:17:12.732Z,6.00
2017-11-18T09:19:40.234Z,6.70
2017-11-18T09:22:07.780Z,5.87
2017-11-18T09:24:36.097Z,5.87
2017-11-18T09:27:03.692Z,7.05
2017-11-18T09:29:31.198Z,6.20
2017-11-18T09:31:58.790Z,6.93
2017-11-18T09:34:26.305Z,5.85
2017-11-18T09:36:53.879Z,6.72
2017-11-18T09:39:22.300Z,7.00
2017-11-18T09:41:50.259Z,6.90
2017-11-18T09:44:17.782Z,5.43
2017-11-18T09:46:45.282Z,6.45
2017-11-18T09:49:12.795Z,6.85
2017-11-18T09:51:40.315Z,6.07
2017-11-18T09:54:07.855Z,5.90
2017-11-18T09:56:35.376Z,6.35
2017-11-18T09:59:02.976Z,6.57
2017-11-18T10:01:30.478Z,5.97
2017-11-18T10:03:58.158Z,6.18
2017-11-18T10:19:37.767Z,6.12
2017-11-18T10:22:05.276Z,6.12
2017-11-18T10:24:32.733Z,4.97
2017-11-18T10:27:00.211Z,5.07
2017-11-18T10:29:27.687Z,4.72
2017-11-18T10:31:55.210Z,5.20
2017-11-18T10:34:22.724Z,5.35
2017-11-18T10:36:50.253Z,6.10
2017-11-18T10:39:17.718Z,5.22
2017-11-18T10:41:45.199Z,5.97
2017-11-18T10:44:12.732Z,5.65
2017-11-18T10:46:40.263Z,5.12
2017-11-18T10:49:07.746Z,4.75
2017-11-18T10:51:35.433Z,4.70
2017-11-18T10:54:02.961Z,5.00
2017-11-18T10:56:30.531Z,5.40
2017-11-18T10:58:58.084Z,5.30
2017-11-18T11:01:25.565Z,4.85
2017-11-18T11:03:53.128Z,5.43
2017-11-18T11:06:20.591Z,5.30
2017-11-18T11:08:48.102Z,5.60
2017-11-18T11:11:15.603Z,5.95
2017-11-18T11:13:43.124Z,5.55
2017-11-18T11:16:10.593Z,5.90
2017-11-18T11:18:39.060Z,4.22
2017-11-18T11:21:06.816Z,4.03
2017-11-18T11:23:34.335Z,3.87
2017-11-18T11:26:01.929Z,2.60
2017-11-18T11:28:30.913Z,1.40
2017-11-18T11:30:58.408Z,1.30
2017-11-18T11:33:26.669Z,0.93
2017-11-18T11:35:54.150Z,1.08
2017-11-18T11:38:22.515Z,0.50
2017-11-18T11:40:50.057Z,0.80
2017-11-18T11:43:17.540Z,0.90
2017-11-18T11:45:46.765Z,0.80
2017-11-18T11:48:14.280Z,0.82
2017-11-18T11:50:41.829Z,0.47
2017-11-18T11:53:09.302Z,0.47
2017-11-18T11:55:36.772Z,0.50
2017-11-18T11:58:05.033Z,0.50
2017-11-18T12:00:32.543Z,0.70
2017-11-18T12:03:00.076Z,0.65
2017-11-18T12:05:27.631Z,1.48
2017-11-18T12:07:55.143Z,0.88
2017-11-18T12:10:22.616Z,0.82
2017-11-18T12:12:50.084Z,0.95
2017-11-18T12:15:17.607Z,0.82
2017-11-18T12:17:45.088Z,1.58
2017-11-18T12:20:12.569Z,1.35
2017-11-18T12:22:40.036Z,0.90
2017-11-18T12:25:07.552Z,1.10
2017-11-18T12:27:35.010Z,0.70
2017-11-18T12:30:02.504Z,0.93
2017-11-18T12:32:30.044Z,1.27
2017-11-18T12:34:57.527Z,0.80
2017-11-18T12:37:24.967Z,1.77
2017-11-18T12:39:52.464Z,0.75
2017-11-18T12:42:19.964Z,0.70
2017-11-18T12:44:48.243Z,1.15
2017-11-18T12:47:15.829Z,1.42
2017-11-18T12:49:43.669Z,1.10
2017-11-18T12:52:13.410Z,1.40
2017-11-18T12:54:42.170Z,0.90
2017-11-18T12:57:09.689Z,0.85
2017-11-18T12:59:37.368Z,0.80
2017-11-18T13:02:04.877Z,0.82
2017-11-18T13:04:32.521Z,0.90
2017-11-18T13:07:00.966Z,1.05
2017-11-18T13:09:28.451Z,1.10
2017-11-18T13:11:55.956Z,0.70
2017-11-18T13:14:23.463Z,0.90
2017-11-18T13:16:51.761Z,0.88
2017-11-18T13:19:19.207Z,1.17
2017-11-18T13:21:46.784Z,0.95
2017-11-18T13:24:14.227Z,1.70
2017-11-18T13:26:41.691Z,1.20
2017-11-18T13:29:09.190Z,1.27
2017-11-18T13:31:36.664Z,1.20
2017-11-18T13:34:04.363Z,1.37
2017-11-18T13:36:32.001Z,1.23
2017-11-18T13:38:59.795Z,1.48
2017-11-18T13:41:27.327Z,1.80
2017-11-18T13:43:54.847Z,1.40
2017-11-18T13:46:22.357Z,1.17
2017-11-18T13:48:51.559Z,1.85
2017-11-18T13:51:19.177Z,1.50
2017-11-18T13:53:46.679Z,1.80
2017-11-18T13:56:14.301Z,1.65
2017-11-18T13:58:41.788Z,1.30
2017-11-18T14:01:10.537Z,1.10
2017-11-18T14:03:38.056Z,1.60
2017-11-18T14:06:05.521Z,1.45
2017-11-18T14:08:32.960Z,1.45
2017-11-18T14:11:00.425Z,1.83
2017-11-18T14:13:27.924Z,2.03
2017-11-18T14:15:55.369Z,2.12
2017-11-18T14:18:22.816Z,1.45
2017-11-18T14:20:50.283Z,2.40
2017-11-18T14:23:17.756Z,2.45
2017-11-18T14:25:45.226Z,1.48
2017-11-18T14:28:12.695Z,1.50
2017-11-18T14:30:40.186Z,1.25
2017-11-18T14:33:07.700Z,1.50
2017-11-18T14:35:35.148Z,1.87
2017-11-18T14:38:02.649Z,1.62
2017-11-18T14:40:30.145Z,2.40
2017-11-18T14:42:57.635Z,1.70
2017-11-18T14:45:25.125Z,1.92
2017-11-18T14:47:52.592Z,1.60
2017-11-18T14:50:20.052Z,1.90
2017-11-18T14:52:47.510Z,2.20
2017-11-18T14:55:15.462Z,2.30
2017-11-18T14:57:42.918Z,2.00
2017-11-18T15:00:10.426Z,1.90
2017-11-18T15:02:38.001Z,2.15
2017-11-18T15:05:05.496Z,1.77
2017-11-18T15:07:32.979Z,2.50
2017-11-18T15:10:00.464Z,1.60
2017-11-18T15:12:27.917Z,2.20
2017-11-18T15:15:06.965Z,2.53
2017-11-18T15:17:40.018Z,2.92
2017-11-18T15:20:13.182Z,2.35
2017-11-18T15:22:46.220Z,1.77
2017-11-18T15:25:19.373Z,2.40
2017-11-18T15:31:15.366Z,2.53
2017-11-18T15:33:44.715Z,2.03
2017-11-18T15:39:30.127Z,3.10
2017-11-18T15:41:57.715Z,4.65
2017-11-18T15:44:45.418Z,2.50
2017-11-18T15:47:15.850Z,2.80
2017-11-18T15:49:48.984Z,2.62
2017-11-18T15:52:19.545Z,2.70
2017-11-18T15:55:08.579Z,2.40
2017-11-18T15:57:37.063Z,3.25
2017-11-18T16:00:07.941Z,2.53
2017-11-18T16:02:37.656Z,2.15
2017-11-18T16:05:06.555Z,2.40
2017-11-18T16:07:34.993Z,2.28
2017-11-18T16:10:02.840Z,3.12
2017-11-18T16:12:30.570Z,3.78
2017-11-18T16:14:58.474Z,3.15
2017-11-18T16:17:26.130Z,2.70
2017-11-18T16:19:53.841Z,3.00
2017-11-18T16:22:21.728Z,2.45
2017-11-18T16:24:49.541Z,2.60
2017-11-18T16:27:17.197Z,3.05
2017-11-18T16:29:45.934Z,2.80
2017-11-18T16:32:13.839Z,2.20
2017-11-18T16:34:41.524Z,2.22
2017-11-18T16:37:10.295Z,1.98
2017-11-18T16:39:38.054Z,2.80
2017-11-18T16:42:05.909Z,2.40
2017-11-18T16:44:33.598Z,2.78
2017-11-18T16:47:01.398Z,2.10
2017-11-18T16:49:30.037Z,2.30
2017-11-18T16:51:58.498Z,1.73
2017-11-18T16:54:26.462Z,2.35
2017-11-18T16:56:55.131Z,2.60
2017-11-18T16:59:23.942Z,2.60
2017-11-18T17:01:51.849Z,3.10
2017-11-18T17:04:20.368Z,4.05
2017-11-18T17:06:48.504Z,1.95
2017-11-18T17:09:16.165Z,3.00
2017-11-18T17:11:43.906Z,2.30
2017-11-18T17:14:11.750Z,2.50
2017-11-18T17:16:39.668Z,2.45
2017-11-18T17:19:07.406Z,3.17
2017-11-18T17:21:35.335Z,2.30
2017-11-18T17:24:03.191Z,3.47
2017-11-18T17:26:30.997Z,3.00
2017-11-18T17:28:58.992Z,2.70
2017-11-18T17:31:26.946Z,4.15
2017-11-18T17:33:55.101Z,3.50
2017-11-18T17:36:23.060Z,2.22
2017-11-18T17:38:50.718Z,3.55
2017-11-18T17:41:18.400Z,3.35
2017-11-18T17:43:46.662Z,3.03
2017-11-18T17:46:19.018Z,4.10
2017-11-18T17:48:47.001Z,2.70
2017-11-18T17:51:14.858Z,3.62
2017-11-18T17:53:44.622Z,4.37
2017-11-18T17:56:12.398Z,2.50
2017-11-18T17:58:42.161Z,3.40
2017-11-18T18:01:10.212Z,3.20
2017-11-18T18:03:37.901Z,3.80
2017-11-18T18:06:05.568Z,2.83
2017-11-18T18:08:33.346Z,3.97
2017-11-18T18:11:01.014Z,3.08
2017-11-18T18:13:29.139Z,4.60
2017-11-18T18:15:56.928Z,3.92
2017-11-18T18:18:24.705Z,3.05
2017-11-18T18:20:52.479Z,3.30
2017-11-18T18:23:20.363Z,4.15
2017-11-18T18:25:48.175Z,4.62
2017-11-18T18:28:15.977Z,3.78
2017-11-18T18:30:43.670Z,3.72
2017-11-18T18:33:11.290Z,3.45
2017-11-18T18:35:49.394Z,3.37
2017-11-18T18:38:23.821Z,3.70
2017-11-18T18:40:52.177Z,3.35
2017-11-18T18:43:20.259Z,3.45
2017-11-18T18:45:48.377Z,3.15
2017-11-18T18:48:17.998Z,3.10
2017-11-18T18:50:46.233Z,3.70
2017-11-18T18:53:20.121Z,2.90
2017-11-18T18:55:48.906Z,4.37
2017-11-18T18:58:16.892Z,3.62
2017-11-18T19:00:51.032Z,3.40
2017-11-18T19:03:20.880Z,3.80
2017-11-18T19:05:48.566Z,3.80
2017-11-18T19:08:16.192Z,3.90
2017-11-18T19:10:43.876Z,3.55
2017-11-18T19:13:11.419Z,3.20
2017-11-18T19:15:39.053Z,4.78
2017-11-18T19:18:06.640Z,3.25
2017-11-18T19:20:34.355Z,3.58
2017-11-18T19:23:01.895Z,3.85
2017-11-18T19:25:29.421Z,4.07
2017-11-18T19:27:57.072Z,4.22
2017-11-18T19:30:24.813Z,3.40
2017-11-18T19:32:52.452Z,3.53
2017-11-18T19:35:20.405Z,3.53
2017-11-18T19:37:48.057Z,3.67
2017-11-18T19:40:15.576Z,3.12
2017-11-18T19:42:43.094Z,3.60
2017-11-18T19:45:10.701Z,4.30
2017-11-18T19:47:38.280Z,4.00
2017-11-18T19:50:05.903Z,3.55
2017-11-18T19:52:33.608Z,3.50
2017-11-18T19:55:01.232Z,2.67
2017-11-18T19:57:29.643Z,3.42
2017-11-18T19:59:58.015Z,4.22
2017-11-18T20:02:25.860Z,4.62
2017-11-18T20:04:55.048Z,3.20
2017-11-18T20:07:23.046Z,3.40
2017-11-18T20:09:51.652Z,2.78
2017-11-18T20:12:20.455Z,3.37
2017-11-18T20:14:50.071Z,4.05
2017-11-18T20:17:21.027Z,3.00
2017-11-18T20:19:50.455Z,3.03
2017-11-18T20:22:17.970Z,2.22
2017-11-18T20:24:47.190Z,1.85
2017-11-18T20:27:15.005Z,2.25
2017-11-18T20:29:42.653Z,2.45
2017-11-18T20:32:11.713Z,2.20
2017-11-18T20:34:39.535Z,2.37
2017-11-18T20:37:07.920Z,3.00
2017-11-18T20:39:35.472Z,2.12
2017-11-18T20:42:03.072Z,2.05
2017-11-18T20:44:31.620Z,2.30
2017-11-18T20:46:59.774Z,2.45
2017-11-18T20:49:27.838Z,2.33
2017-11-18T20:52:00.953Z,3.00
2017-11-18T21:02:52.221Z,3.00
2017-11-18T21:05:19.781Z,2.83
2017-11-18T21:07:49.178Z,2.75
2017-11-18T21:10:17.106Z,3.60
2017-11-18T21:12:45.433Z,2.87
2017-11-18T21:15:14.619Z,3.33
2017-11-18T21:17:42.587Z,2.70
2017-11-18T21:23:14.749Z,3.55
2017-11-18T21:25:44.574Z,2.30
2017-11-18T21:28:14.465Z,3.70
2017-11-18T21:30:44.787Z,2.97
2017-11-18T21:33:12.581Z,2.97
2017-11-18T21:35:57.379Z,1.85
2017-11-18T21:38:28.292Z,1.50
2017-11-18T21:40:56.117Z,1.70
2017-11-18T21:43:24.129Z,1.85
2017-11-18T21:45:52.770Z,1.48
2017-11-18T21:48:21.304Z,1.80
2017-11-18T21:50:51.367Z,1.60
2017-11-18T21:53:23.975Z,2.15
2017-11-18T21:55:51.867Z,1.48
2017-11-18T21:58:19.573Z,1.45
2017-11-18T22:00:47.468Z,1.70
2017-11-18T22:03:19.261Z,1.83
2017-11-18T22:05:47.781Z,2.25
2017-11-18T22:08:16.079Z,1.83
2017-11-18T22:10:45.366Z,2.35
2017-11-18T22:13:15.401Z,2.00
2017-11-18T22:15:57.064Z,1.83
2017-11-18T22:18:26.385Z,2.80
2017-11-18T22:20:55.041Z,1.95
2017-11-18T22:23:26.294Z,2.58
2017-11-18T22:25:54.062Z,2.70
2017-11-18T22:28:21.700Z,2.00
2017-11-18T22:30:49.707Z,3.10
2017-11-18T22:33:17.265Z,2.37
2017-11-18T22:35:44.852Z,2.75
2017-11-18T22:38:13.596Z,3.85
2017-11-18T22:40:41.481Z,2.97
2017-11-18T22:43:25.104Z,2.95
2017-11-18T22:45:52.915Z,2.45
2017-11-18T22:48:24.884Z,2.97
2017-11-18T22:50:54.794Z,3.15
2017-11-18T22:53:22.861Z,2.55
2017-11-18T22:56:00.863Z,2.55
2017-11-18T22:58:58.477Z,2.70
2017-11-18T23:01:37.622Z,2.40
2017-11-18T23:04:07.350Z,3.00
2017-11-18T23:06:40.252Z,2.45
2017-11-18T23:09:08.230Z,4.97
2017-11-18T23:11:35.941Z,3.78
2017-11-18T23:14:09.759Z,3.55
2017-11-18T23:16:37.451Z,3.40
2017-11-18T23:37:46.078Z,1.90
2017-11-18T23:40:14.606Z,2.00
2017-11-18T23:42:43.526Z,2.90
2017-11-18T23:45:11.188Z,2.85
